sensor_id;sensor_type;location;lat;lon;timestamp;P1;durP1;ratioP1;P2;durP2;ratioP2
69847;SDS011;57143;55.940;37.496;2024-01-11T00:02:23;3.33;;;0.90;;
69847;SDS011;57143;55.940;37.496;2024-01-11T00:04:52;4.97;;;1.25;;
69847;SDS011;57143;55.940;37.496;2024-01-11T00:07:19;5.30;;;1.10;;
69847;SDS011;57143;55.940;37.496;2024-01-11T00:09:47;8.73;;;1.17;;
69847;SDS011;57143;55.940;37.496;2024-01-11T00:12:14;5.00;;;1.30;;
69847;SDS011;57143;55.940;37.496;2024-01-11T00:14:42;2.75;;;0.60;;
69847;SDS011;57143;55.940;37.496;2024-01-11T00:17:09;4.95;;;0.95;;
69847;SDS011;57143;55.940;37.496;2024-01-11T00:19:36;3.57;;;1.07;;
69847;SDS011;57143;55.940;37.496;2024-01-11T00:22:05;7.65;;;1.42;;
69847;SDS011;57143;55.940;37.496;2024-01-11T00:24:32;4.82;;;1.02;;
69847;SDS011;57143;55.940;37.496;2024-01-11T00:27:00;4.80;;;0.82;;
69847;SDS011;57143;55.940;37.496;2024-01-11T00:29:27;5.03;;;1.27;;
69847;SDS011;57143;55.940;37.496;2024-01-11T00:31:55;4.53;;;1.07;;
69847;SDS011;57143;55.940;37.496;2024-01-11T00:34:23;5.13;;;1.05;;
69847;SDS011;57143;55.940;37.496;2024-01-11T00:36:50;8.05;;;1.35;;
69847;SDS011;57143;55.940;37.496;2024-01-11T00:39:19;4.50;;;1.85;;
69847;SDS011;57143;55.940;37.496;2024-01-11T00:41:46;3.13;;;0.60;;
69847;SDS011;57143;55.940;37.496;2024-01-11T00:44:14;5.63;;;1.37;;
69847;SDS011;57143;55.940;37.496;2024-01-11T00:46:41;5.20;;;1.27;;
69847;SDS011;57143;55.940;37.496;2024-01-11T00:49:08;7.80;;;1.40;;
69847;SDS011;57143;55.940;37.496;2024-01-11T00:51:35;4.03;;;0.90;;
69847;SDS011;57143;55.940;37.496;2024-01-11T00:54:03;5.68;;;1.20;;
69847;SDS011;57143;55.940;37.496;2024-01-11T00:56:32;4.50;;;0.93;;
69847;SDS011;57143;55.940;37.496;2024-01-11T00:59:00;3.78;;;0.90;;
69847;SDS011;57143;55.940;37.496;2024-01-11T01:01:27;3.15;;;0.80;;
69847;SDS011;57143;55.940;37.496;2024-01-11T01:03:54;4.53;;;1.20;;
69847;SDS011;57143;55.940;37.496;2024-01-11T01:06:22;5.90;;;1.23;;
69847;SDS011;57143;55.940;37.496;2024-01-11T01:08:49;4.77;;;0.80;;
69847;SDS011;57143;55.940;37.496;2024-01-11T01:11:17;5.07;;;1.13;;
69847;SDS011;57143;55.940;37.496;2024-01-11T01:13:45;4.60;;;0.95;;
69847;SDS011;57143;55.940;37.496;2024-01-11T01:16:13;1.40;;;0.30;;
69847;SDS011;57143;55.940;37.496;2024-01-11T01:18:42;3.78;;;0.80;;
69847;SDS011;57143;55.940;37.496;2024-01-11T01:21:09;5.80;;;0.93;;
69847;SDS011;57143;55.940;37.496;2024-01-11T01:23:36;3.15;;;0.68;;
69847;SDS011;57143;55.940;37.496;2024-01-11T01:26:04;4.28;;;1.00;;
69847;SDS011;57143;55.940;37.496;2024-01-11T01:28:33;2.65;;;0.52;;
69847;SDS011;57143;55.940;37.496;2024-01-11T01:31:01;3.95;;;0.82;;
69847;SDS011;57143;55.940;37.496;2024-01-11T01:33:29;3.93;;;0.87;;
69847;SDS011;57143;55.940;37.496;2024-01-11T01:35:56;2.20;;;0.50;;
69847;SDS011;57143;55.940;37.496;2024-01-11T01:38:23;3.08;;;0.70;;
69847;SDS011;57143;55.940;37.496;2024-01-11T01:40:51;3.55;;;0.55;;
69847;SDS011;57143;55.940;37.496;2024-01-11T01:43:18;4.40;;;1.05;;
69847;SDS011;57143;55.940;37.496;2024-01-11T01:45:45;4.27;;;0.73;;
69847;SDS011;57143;55.940;37.496;2024-01-11T01:48:15;5.95;;;1.02;;
69847;SDS011;57143;55.940;37.496;2024-01-11T01:50:43;6.07;;;1.00;;
69847;SDS011;57143;55.940;37.496;2024-01-11T01:53:15;4.88;;;1.00;;
69847;SDS011;57143;55.940;37.496;2024-01-11T01:55:43;3.83;;;0.80;;
69847;SDS011;57143;55.940;37.496;2024-01-11T01:58:11;5.13;;;0.90;;
69847;SDS011;57143;55.940;37.496;2024-01-11T02:00:39;3.47;;;1.05;;
69847;SDS011;57143;55.940;37.496;2024-01-11T02:03:07;3.67;;;0.68;;
69847;SDS011;57143;55.940;37.496;2024-01-11T02:05:37;4.00;;;0.90;;
69847;SDS011;57143;55.940;37.496;2024-01-11T02:08:06;4.05;;;0.65;;
69847;SDS011;57143;55.940;37.496;2024-01-11T02:10:35;3.70;;;0.77;;
69847;SDS011;57143;55.940;37.496;2024-01-11T02:13:02;5.13;;;0.77;;
69847;SDS011;57143;55.940;37.496;2024-01-11T02:15:31;3.03;;;0.50;;
69847;SDS011;57143;55.940;37.496;2024-01-11T02:17:59;2.72;;;0.57;;
69847;SDS011;57143;55.940;37.496;2024-01-11T02:20:26;3.10;;;0.63;;
69847;SDS011;57143;55.940;37.496;2024-01-11T02:22:56;3.33;;;0.50;;
69847;SDS011;57143;55.940;37.496;2024-01-11T02:25:29;3.38;;;0.57;;
69847;SDS011;57143;55.940;37.496;2024-01-11T02:27:56;1.80;;;0.50;;
69847;SDS011;57143;55.940;37.496;2024-01-11T02:30:24;2.88;;;0.50;;
69847;SDS011;57143;55.940;37.496;2024-01-11T02:32:51;2.45;;;0.40;;
69847;SDS011;57143;55.940;37.496;2024-01-11T02:35:20;1.70;;;0.33;;
69847;SDS011;57143;55.940;37.496;2024-01-11T02:37:48;3.70;;;0.60;;
69847;SDS011;57143;55.940;37.496;2024-01-11T02:40:15;4.53;;;0.77;;
69847;SDS011;57143;55.940;37.496;2024-01-11T02:42:45;4.03;;;0.50;;
69847;SDS011;57143;55.940;37.496;2024-01-11T02:45:12;4.80;;;0.70;;
69847;SDS011;57143;55.940;37.496;2024-01-11T02:47:39;3.47;;;0.60;;
69847;SDS011;57143;55.940;37.496;2024-01-11T02:50:07;3.30;;;0.77;;
69847;SDS011;57143;55.940;37.496;2024-01-11T02:52:37;3.53;;;0.68;;
69847;SDS011;57143;55.940;37.496;2024-01-11T02:55:04;3.97;;;0.73;;
69847;SDS011;57143;55.940;37.496;2024-01-11T02:57:32;3.33;;;0.68;;
69847;SDS011;57143;55.940;37.496;2024-01-11T03:00:01;2.73;;;0.60;;
69847;SDS011;57143;55.940;37.496;2024-01-11T03:02:30;4.65;;;0.80;;
69847;SDS011;57143;55.940;37.496;2024-01-11T03:04:57;3.50;;;0.80;;
69847;SDS011;57143;55.940;37.496;2024-01-11T03:07:25;4.28;;;0.75;;
69847;SDS011;57143;55.940;37.496;2024-01-11T03:09:53;3.75;;;0.85;;
69847;SDS011;57143;55.940;37.496;2024-01-11T03:12:21;3.73;;;0.67;;
69847;SDS011;57143;55.940;37.496;2024-01-11T03:14:51;5.32;;;1.13;;
69847;SDS011;57143;55.940;37.496;2024-01-11T03:17:20;4.05;;;0.73;;
69847;SDS011;57143;55.940;37.496;2024-01-11T03:19:47;4.95;;;0.70;;
69847;SDS011;57143;55.940;37.496;2024-01-11T03:22:14;3.30;;;0.60;;
69847;SDS011;57143;55.940;37.496;2024-01-11T03:24:41;3.50;;;0.60;;
69847;SDS011;57143;55.940;37.496;2024-01-11T03:27:09;2.67;;;0.50;;
69847;SDS011;57143;55.940;37.496;2024-01-11T03:29:36;4.45;;;0.70;;
69847;SDS011;57143;55.940;37.496;2024-01-11T03:32:04;2.42;;;0.38;;
69847;SDS011;57143;55.940;37.496;2024-01-11T03:34:33;2.30;;;0.40;;
69847;SDS011;57143;55.940;37.496;2024-01-11T03:37:01;3.73;;;0.50;;
69847;SDS011;57143;55.940;37.496;2024-01-11T03:39:28;2.67;;;0.50;;
69847;SDS011;57143;55.940;37.496;2024-01-11T03:41:55;2.55;;;0.50;;
69847;SDS011;57143;55.940;37.496;2024-01-11T03:44:22;3.90;;;0.68;;
69847;SDS011;57143;55.940;37.496;2024-01-11T03:46:50;2.53;;;0.40;;
69847;SDS011;57143;55.940;37.496;2024-01-11T03:49:17;2.87;;;0.40;;
69847;SDS011;57143;55.940;37.496;2024-01-11T03:51:46;2.80;;;0.55;;
69847;SDS011;57143;55.940;37.496;2024-01-11T03:54:13;3.28;;;0.60;;
69847;SDS011;57143;55.940;37.496;2024-01-11T03:56:41;2.92;;;0.40;;
69847;SDS011;57143;55.940;37.496;2024-01-11T03:59:07;3.92;;;0.70;;
69847;SDS011;57143;55.940;37.496;2024-01-11T04:01:38;2.43;;;0.50;;
69847;SDS011;57143;55.940;37.496;2024-01-11T04:04:06;2.55;;;0.40;;
69847;SDS011;57143;55.940;37.496;2024-01-11T04:06:34;2.92;;;0.55;;
69847;SDS011;57143;55.940;37.496;2024-01-11T04:09:02;2.20;;;0.40;;
69847;SDS011;57143;55.940;37.496;2024-01-11T04:11:30;2.72;;;0.50;;
69847;SDS011;57143;55.940;37.496;2024-01-11T04:13:57;1.33;;;0.27;;
69847;SDS011;57143;55.940;37.496;2024-01-11T04:16:25;1.85;;;0.30;;
69847;SDS011;57143;55.940;37.496;2024-01-11T04:18:52;3.53;;;0.68;;
69847;SDS011;57143;55.940;37.496;2024-01-11T04:21:20;4.03;;;0.68;;
69847;SDS011;57143;55.940;37.496;2024-01-11T04:23:48;5.22;;;0.85;;
69847;SDS011;57143;55.940;37.496;2024-01-11T04:26:17;4.53;;;0.80;;
69847;SDS011;57143;55.940;37.496;2024-01-11T04:28:44;3.75;;;0.70;;
69847;SDS011;57143;55.940;37.496;2024-01-11T04:31:13;3.67;;;0.60;;
69847;SDS011;57143;55.940;37.496;2024-01-11T04:33:42;1.40;;;0.30;;
69847;SDS011;57143;55.940;37.496;2024-01-11T04:36:11;4.18;;;0.77;;
69847;SDS011;57143;55.940;37.496;2024-01-11T04:38:39;2.90;;;0.57;;
69847;SDS011;57143;55.940;37.496;2024-01-11T04:41:07;1.80;;;0.38;;
69847;SDS011;57143;55.940;37.496;2024-01-11T04:43:38;3.20;;;0.50;;
69847;SDS011;57143;55.940;37.496;2024-01-11T04:46:12;3.95;;;0.70;;
69847;SDS011;57143;55.940;37.496;2024-01-11T04:48:40;2.78;;;0.40;;
69847;SDS011;57143;55.940;37.496;2024-01-11T04:51:08;2.20;;;0.50;;
69847;SDS011;57143;55.940;37.496;2024-01-11T04:53:38;1.88;;;0.45;;
69847;SDS011;57143;55.940;37.496;2024-01-11T04:56:06;2.97;;;0.60;;
69847;SDS011;57143;55.940;37.496;2024-01-11T04:58:34;2.10;;;0.40;;
69847;SDS011;57143;55.940;37.496;2024-01-11T05:01:04;3.78;;;0.60;;
69847;SDS011;57143;55.940;37.496;2024-01-11T05:03:32;2.07;;;0.30;;
69847;SDS011;57143;55.940;37.496;2024-01-11T05:05:59;2.45;;;0.40;;
69847;SDS011;57143;55.940;37.496;2024-01-11T05:08:27;2.97;;;0.40;;
69847;SDS011;57143;55.940;37.496;2024-01-11T05:10:54;2.83;;;0.50;;
69847;SDS011;57143;55.940;37.496;2024-01-11T05:13:21;4.10;;;0.65;;
69847;SDS011;57143;55.940;37.496;2024-01-11T05:15:49;2.40;;;0.40;;
69847;SDS011;57143;55.940;37.496;2024-01-11T05:18:17;3.70;;;0.70;;
69847;SDS011;57143;55.940;37.496;2024-01-11T05:20:45;2.60;;;0.50;;
69847;SDS011;57143;55.940;37.496;2024-01-11T05:23:12;3.65;;;0.70;;
69847;SDS011;57143;55.940;37.496;2024-01-11T05:25:39;4.93;;;0.47;;
69847;SDS011;57143;55.940;37.496;2024-01-11T05:28:07;5.83;;;0.60;;
69847;SDS011;57143;55.940;37.496;2024-01-11T05:30:34;2.92;;;0.60;;
69847;SDS011;57143;55.940;37.496;2024-01-11T05:33:01;3.50;;;0.60;;
69847;SDS011;57143;55.940;37.496;2024-01-11T05:35:31;2.83;;;0.50;;
69847;SDS011;57143;55.940;37.496;2024-01-11T05:37:58;3.78;;;0.68;;
69847;SDS011;57143;55.940;37.496;2024-01-11T05:40:25;3.23;;;0.60;;
69847;SDS011;57143;55.940;37.496;2024-01-11T05:42:52;3.08;;;0.40;;
69847;SDS011;57143;55.940;37.496;2024-01-11T05:45:20;2.60;;;0.60;;
69847;SDS011;57143;55.940;37.496;2024-01-11T05:47:47;3.63;;;0.80;;
69847;SDS011;57143;55.940;37.496;2024-01-11T05:50:14;3.28;;;0.68;;
69847;SDS011;57143;55.940;37.496;2024-01-11T05:52:43;4.57;;;0.60;;
69847;SDS011;57143;55.940;37.496;2024-01-11T05:55:11;4.55;;;0.52;;
69847;SDS011;57143;55.940;37.496;2024-01-11T05:57:38;2.67;;;0.40;;
69847;SDS011;57143;55.940;37.496;2024-01-11T06:00:05;2.80;;;0.60;;
69847;SDS011;57143;55.940;37.496;2024-01-11T06:02:33;5.22;;;0.60;;
69847;SDS011;57143;55.940;37.496;2024-01-11T06:05:03;5.60;;;0.60;;
69847;SDS011;57143;55.940;37.496;2024-01-11T06:07:31;2.63;;;0.45;;
69847;SDS011;57143;55.940;37.496;2024-01-11T06:09:59;3.40;;;0.65;;
69847;SDS011;57143;55.940;37.496;2024-01-11T06:12:29;2.75;;;0.50;;
69847;SDS011;57143;55.940;37.496;2024-01-11T06:14:56;7.05;;;0.70;;
69847;SDS011;57143;55.940;37.496;2024-01-11T06:17:24;2.60;;;0.40;;
69847;SDS011;57143;55.940;37.496;2024-01-11T06:19:51;2.20;;;0.40;;
69847;SDS011;57143;55.940;37.496;2024-01-11T06:22:18;2.65;;;0.50;;
69847;SDS011;57143;55.940;37.496;2024-01-11T06:24:46;2.67;;;0.40;;
69847;SDS011;57143;55.940;37.496;2024-01-11T06:27:14;2.90;;;0.52;;
69847;SDS011;57143;55.940;37.496;2024-01-11T06:29:42;3.70;;;0.50;;
69847;SDS011;57143;55.940;37.496;2024-01-11T06:32:09;3.38;;;0.50;;
69847;SDS011;57143;55.940;37.496;2024-01-11T06:34:36;2.58;;;0.60;;
69847;SDS011;57143;55.940;37.496;2024-01-11T06:37:11;2.78;;;0.57;;
69847;SDS011;57143;55.940;37.496;2024-01-11T06:39:38;3.03;;;0.60;;
69847;SDS011;57143;55.940;37.496;2024-01-11T06:42:06;5.03;;;0.60;;
69847;SDS011;57143;55.940;37.496;2024-01-11T06:44:35;3.13;;;0.60;;
69847;SDS011;57143;55.940;37.496;2024-01-11T06:47:02;2.58;;;0.50;;
69847;SDS011;57143;55.940;37.496;2024-01-11T06:49:31;2.70;;;0.43;;
69847;SDS011;57143;55.940;37.496;2024-01-11T06:51:58;2.47;;;0.50;;
69847;SDS011;57143;55.940;37.496;2024-01-11T06:54:25;3.60;;;0.50;;
69847;SDS011;57143;55.940;37.496;2024-01-11T06:56:53;3.65;;;0.50;;
69847;SDS011;57143;55.940;37.496;2024-01-11T06:59:20;3.35;;;0.60;;
69847;SDS011;57143;55.940;37.496;2024-01-11T07:01:49;4.03;;;0.70;;
69847;SDS011;57143;55.940;37.496;2024-01-11T07:04:16;2.78;;;0.73;;
69847;SDS011;57143;55.940;37.496;2024-01-11T07:06:44;2.83;;;0.60;;
69847;SDS011;57143;55.940;37.496;2024-01-11T07:09:11;2.17;;;0.40;;
69847;SDS011;57143;55.940;37.496;2024-01-11T07:11:38;2.40;;;0.50;;
69847;SDS011;57143;55.940;37.496;2024-01-11T07:14:06;3.10;;;0.75;;
69847;SDS011;57143;55.940;37.496;2024-01-11T07:16:33;3.25;;;0.75;;
69847;SDS011;57143;55.940;37.496;2024-01-11T07:19:02;2.20;;;0.47;;
69847;SDS011;57143;55.940;37.496;2024-01-11T07:21:30;2.30;;;0.55;;
69847;SDS011;57143;55.940;37.496;2024-01-11T07:23:57;2.35;;;0.50;;
69847;SDS011;57143;55.940;37.496;2024-01-11T07:26:25;2.50;;;0.50;;
69847;SDS011;57143;55.940;37.496;2024-01-11T07:28:52;2.63;;;0.50;;
69847;SDS011;57143;55.940;37.496;2024-01-11T07:31:21;2.60;;;0.50;;
69847;SDS011;57143;55.940;37.496;2024-01-11T07:33:48;3.55;;;0.70;;
69847;SDS011;57143;55.940;37.496;2024-01-11T07:36:17;2.60;;;0.50;;
69847;SDS011;57143;55.940;37.496;2024-01-11T07:38:45;2.15;;;0.40;;
69847;SDS011;57143;55.940;37.496;2024-01-11T07:41:12;2.03;;;0.40;;
69847;SDS011;57143;55.940;37.496;2024-01-11T07:43:40;3.87;;;0.70;;
69847;SDS011;57143;55.940;37.496;2024-01-11T07:46:07;2.45;;;0.40;;
69847;SDS011;57143;55.940;37.496;2024-01-11T07:48:34;3.13;;;0.50;;
69847;SDS011;57143;55.940;37.496;2024-01-11T07:51:02;3.50;;;0.55;;
69847;SDS011;57143;55.940;37.496;2024-01-11T07:53:31;2.47;;;0.40;;
69847;SDS011;57143;55.940;37.496;2024-01-11T07:55:59;2.57;;;0.40;;
69847;SDS011;57143;55.940;37.496;2024-01-11T07:58:26;3.53;;;0.85;;
69847;SDS011;57143;55.940;37.496;2024-01-11T08:00:54;2.53;;;0.52;;
69847;SDS011;57143;55.940;37.496;2024-01-11T08:03:21;3.80;;;0.60;;
69847;SDS011;57143;55.940;37.496;2024-01-11T08:05:48;2.17;;;0.35;;
69847;SDS011;57143;55.940;37.496;2024-01-11T08:08:16;3.20;;;0.50;;
69847;SDS011;57143;55.940;37.496;2024-01-11T08:10:45;2.53;;;0.50;;
69847;SDS011;57143;55.940;37.496;2024-01-11T08:13:12;3.03;;;0.60;;
69847;SDS011;57143;55.940;37.496;2024-01-11T08:15:40;2.28;;;0.50;;
69847;SDS011;57143;55.940;37.496;2024-01-11T08:18:07;2.58;;;0.60;;
69847;SDS011;57143;55.940;37.496;2024-01-11T08:20:35;3.77;;;0.60;;
69847;SDS011;57143;55.940;37.496;2024-01-11T08:23:02;3.95;;;0.80;;
69847;SDS011;57143;55.940;37.496;2024-01-11T08:25:30;3.15;;;0.60;;
69847;SDS011;57143;55.940;37.496;2024-01-11T08:27:59;5.22;;;0.73;;
69847;SDS011;57143;55.940;37.496;2024-01-11T08:30:28;4.57;;;0.90;;
69847;SDS011;57143;55.940;37.496;2024-01-11T08:32:55;10.13;;;1.23;;
69847;SDS011;57143;55.940;37.496;2024-01-11T08:35:22;2.17;;;0.35;;
69847;SDS011;57143;55.940;37.496;2024-01-11T08:37:50;1.40;;;0.30;;
69847;SDS011;57143;55.940;37.496;2024-01-11T08:40:17;1.90;;;0.40;;
69847;SDS011;57143;55.940;37.496;2024-01-11T08:42:44;3.13;;;0.38;;
69847;SDS011;57143;55.940;37.496;2024-01-11T08:45:14;2.10;;;0.40;;
69847;SDS011;57143;55.940;37.496;2024-01-11T08:47:43;1.48;;;0.28;;
69847;SDS011;57143;55.940;37.496;2024-01-11T08:50:12;1.23;;;0.20;;
69847;SDS011;57143;55.940;37.496;2024-01-11T08:52:39;1.00;;;0.20;;
69847;SDS011;57143;55.940;37.496;2024-01-11T08:55:07;1.08;;;0.20;;
69847;SDS011;57143;55.940;37.496;2024-01-11T08:57:35;2.17;;;0.30;;
69847;SDS011;57143;55.940;37.496;2024-01-11T09:00:02;1.88;;;0.30;;
69847;SDS011;57143;55.940;37.496;2024-01-11T09:02:34;2.58;;;0.40;;
69847;SDS011;57143;55.940;37.496;2024-01-11T09:05:01;2.08;;;0.30;;
69847;SDS011;57143;55.940;37.496;2024-01-11T09:07:30;2.78;;;0.40;;
69847;SDS011;57143;55.940;37.496;2024-01-11T09:09:58;1.90;;;0.40;;
69847;SDS011;57143;55.940;37.496;2024-01-11T09:12:25;3.85;;;0.40;;
69847;SDS011;57143;55.940;37.496;2024-01-11T09:14:52;2.50;;;0.50;;
69847;SDS011;57143;55.940;37.496;2024-01-11T09:17:20;2.20;;;0.38;;
69847;SDS011;57143;55.940;37.496;2024-01-11T09:19:49;1.70;;;0.30;;
69847;SDS011;57143;55.940;37.496;2024-01-11T09:22:17;1.90;;;0.30;;
69847;SDS011;57143;55.940;37.496;2024-01-11T09:24:44;4.80;;;0.50;;
69847;SDS011;57143;55.940;37.496;2024-01-11T09:27:12;2.33;;;0.50;;
69847;SDS011;57143;55.940;37.496;2024-01-11T09:29:42;2.58;;;0.50;;
69847;SDS011;57143;55.940;37.496;2024-01-11T09:32:10;1.45;;;0.30;;
69847;SDS011;57143;55.940;37.496;2024-01-11T09:34:37;2.13;;;0.30;;
69847;SDS011;57143;55.940;37.496;2024-01-11T09:37:06;1.60;;;0.30;;
69847;SDS011;57143;55.940;37.496;2024-01-11T09:39:33;2.47;;;0.40;;
69847;SDS011;57143;55.940;37.496;2024-01-11T09:42:03;1.90;;;0.30;;
69847;SDS011;57143;55.940;37.496;2024-01-11T09:44:35;3.08;;;0.30;;
69847;SDS011;57143;55.940;37.496;2024-01-11T09:47:04;2.57;;;0.30;;
69847;SDS011;57143;55.940;37.496;2024-01-11T09:49:33;3.45;;;0.40;;
69847;SDS011;57143;55.940;37.496;2024-01-11T09:52:03;2.45;;;0.40;;
69847;SDS011;57143;55.940;37.496;2024-01-11T09:54:35;2.42;;;0.50;;
69847;SDS011;57143;55.940;37.496;2024-01-11T09:57:05;1.88;;;0.30;;
69847;SDS011;57143;55.940;37.496;2024-01-11T09:59:35;2.30;;;0.47;;
69847;SDS011;57143;55.940;37.496;2024-01-11T10:02:03;2.28;;;0.35;;
69847;SDS011;57143;55.940;37.496;2024-01-11T10:04:33;2.05;;;0.30;;
69847;SDS011;57143;55.940;37.496;2024-01-11T10:07:02;2.88;;;0.40;;
69847;SDS011;57143;55.940;37.496;2024-01-11T10:09:32;2.53;;;0.50;;
69847;SDS011;57143;55.940;37.496;2024-01-11T10:12:01;2.40;;;0.40;;
69847;SDS011;57143;55.940;37.496;2024-01-11T10:14:30;1.50;;;0.43;;
69847;SDS011;57143;55.940;37.496;2024-01-11T10:16:58;2.78;;;0.40;;
69847;SDS011;57143;55.940;37.496;2024-01-11T10:19:26;8.00;;;0.75;;
69847;SDS011;57143;55.940;37.496;2024-01-11T10:21:53;2.80;;;0.40;;
69847;SDS011;57143;55.940;37.496;2024-01-11T10:24:20;2.67;;;0.63;;
69847;SDS011;57143;55.940;37.496;2024-01-11T10:26:51;2.03;;;0.30;;
69847;SDS011;57143;55.940;37.496;2024-01-11T10:29:23;2.47;;;0.43;;
69847;SDS011;57143;55.940;37.496;2024-01-11T10:31:55;1.77;;;0.30;;
69847;SDS011;57143;55.940;37.496;2024-01-11T10:34:23;2.70;;;0.43;;
69847;SDS011;57143;55.940;37.496;2024-01-11T10:36:50;2.03;;;0.30;;
69847;SDS011;57143;55.940;37.496;2024-01-11T10:39:18;5.43;;;0.30;;
69847;SDS011;57143;55.940;37.496;2024-01-11T10:41:51;3.67;;;0.40;;
69847;SDS011;57143;55.940;37.496;2024-01-11T10:44:22;2.50;;;0.40;;
69847;SDS011;57143;55.940;37.496;2024-01-11T10:46:54;1.80;;;0.30;;
69847;SDS011;57143;55.940;37.496;2024-01-11T10:49:23;2.87;;;0.47;;
69847;SDS011;57143;55.940;37.496;2024-01-11T10:51:53;2.00;;;0.25;;
69847;SDS011;57143;55.940;37.496;2024-01-11T10:54:27;2.13;;;0.30;;
69847;SDS011;57143;55.940;37.496;2024-01-11T10:56:56;2.00;;;0.32;;
69847;SDS011;57143;55.940;37.496;2024-01-11T10:59:30;2.28;;;0.38;;
69847;SDS011;57143;55.940;37.496;2024-01-11T11:02:00;3.37;;;0.50;;
69847;SDS011;57143;55.940;37.496;2024-01-11T11:04:32;2.38;;;0.40;;
69847;SDS011;57143;55.940;37.496;2024-01-11T11:07:00;4.00;;;0.40;;
69847;SDS011;57143;55.940;37.496;2024-01-11T11:09:29;1.90;;;0.30;;
69847;SDS011;57143;55.940;37.496;2024-01-11T11:12:00;2.55;;;0.40;;
69847;SDS011;57143;55.940;37.496;2024-01-11T11:14:30;4.87;;;0.40;;
69847;SDS011;57143;55.940;37.496;2024-01-11T11:17:01;3.63;;;0.43;;
69847;SDS011;57143;55.940;37.496;2024-01-11T11:19:29;2.33;;;0.30;;
69847;SDS011;57143;55.940;37.496;2024-01-11T11:21:57;2.70;;;0.90;;
69847;SDS011;57143;55.940;37.496;2024-01-11T11:24:25;2.88;;;0.60;;
69847;SDS011;57143;55.940;37.496;2024-01-11T11:26:52;1.57;;;0.33;;
69847;SDS011;57143;55.940;37.496;2024-01-11T11:29:22;2.78;;;0.45;;
69847;SDS011;57143;55.940;37.496;2024-01-11T11:31:51;3.58;;;0.60;;
69847;SDS011;57143;55.940;37.496;2024-01-11T11:34:20;2.10;;;0.30;;
69847;SDS011;57143;55.940;37.496;2024-01-11T11:37:06;2.78;;;0.47;;
69847;SDS011;57143;55.940;37.496;2024-01-11T11:39:33;1.90;;;0.33;;
69847;SDS011;57143;55.940;37.496;2024-01-11T11:42:01;3.38;;;0.45;;
69847;SDS011;57143;55.940;37.496;2024-01-11T11:44:29;2.53;;;0.45;;
69847;SDS011;57143;55.940;37.496;2024-01-11T11:47:11;3.15;;;0.50;;
69847;SDS011;57143;55.940;37.496;2024-01-11T11:49:58;2.92;;;0.70;;
69847;SDS011;57143;55.940;37.496;2024-01-11T11:52:30;2.07;;;0.60;;
69847;SDS011;57143;55.940;37.496;2024-01-11T11:54:59;1.77;;;0.20;;
69847;SDS011;57143;55.940;37.496;2024-01-11T11:57:28;2.75;;;0.60;;
69847;SDS011;57143;55.940;37.496;2024-01-11T11:59:56;2.78;;;0.30;;
69847;SDS011;57143;55.940;37.496;2024-01-11T12:02:26;2.45;;;0.40;;
69847;SDS011;57143;55.940;37.496;2024-01-11T12:04:53;2.33;;;0.50;;
69847;SDS011;57143;55.940;37.496;2024-01-11T12:07:21;3.30;;;0.75;;
69847;SDS011;57143;55.940;37.496;2024-01-11T12:09:50;2.78;;;0.45;;
69847;SDS011;57143;55.940;37.496;2024-01-11T12:12:18;2.65;;;0.50;;
69847;SDS011;57143;55.940;37.496;2024-01-11T12:14:46;2.67;;;0.50;;
69847;SDS011;57143;55.940;37.496;2024-01-11T12:17:14;2.20;;;0.40;;
69847;SDS011;57143;55.940;37.496;2024-01-11T12:19:43;1.70;;;0.30;;
69847;SDS011;57143;55.940;37.496;2024-01-11T12:22:10;2.65;;;0.55;;
69847;SDS011;57143;55.940;37.496;2024-01-11T12:24:38;3.13;;;0.40;;
69847;SDS011;57143;55.940;37.496;2024-01-11T12:27:06;4.00;;;0.80;;
69847;SDS011;57143;55.940;37.496;2024-01-11T12:29:34;3.83;;;0.77;;
69847;SDS011;57143;55.940;37.496;2024-01-11T12:32:02;2.85;;;0.80;;
69847;SDS011;57143;55.940;37.496;2024-01-11T12:34:30;2.70;;;0.40;;
69847;SDS011;57143;55.940;37.496;2024-01-11T12:36:59;1.98;;;0.30;;
69847;SDS011;57143;55.940;37.496;2024-01-11T12:39:30;2.55;;;0.40;;
69847;SDS011;57143;55.940;37.496;2024-01-11T12:41:58;2.37;;;0.37;;
69847;SDS011;57143;55.940;37.496;2024-01-11T12:44:25;1.80;;;0.40;;
69847;SDS011;57143;55.940;37.496;2024-01-11T12:46:52;2.60;;;0.50;;
69847;SDS011;57143;55.940;37.496;2024-01-11T12:49:21;1.90;;;0.40;;
69847;SDS011;57143;55.940;37.496;2024-01-11T12:51:49;1.73;;;0.30;;
69847;SDS011;57143;55.940;37.496;2024-01-11T12:54:27;3.80;;;0.50;;
69847;SDS011;57143;55.940;37.496;2024-01-11T12:57:11;2.05;;;0.32;;
69847;SDS011;57143;55.940;37.496;2024-01-11T12:59:38;2.97;;;0.30;;
69847;SDS011;57143;55.940;37.496;2024-01-11T13:02:06;2.55;;;0.30;;
69847;SDS011;57143;55.940;37.496;2024-01-11T13:04:34;2.60;;;0.40;;
69847;SDS011;57143;55.940;37.496;2024-01-11T13:07:01;1.67;;;0.30;;
69847;SDS011;57143;55.940;37.496;2024-01-11T13:09:30;2.08;;;0.47;;
69847;SDS011;57143;55.940;37.496;2024-01-11T13:11:57;1.63;;;0.30;;
69847;SDS011;57143;55.940;37.496;2024-01-11T13:14:25;1.13;;;0.28;;
69847;SDS011;57143;55.940;37.496;2024-01-11T13:16:54;2.42;;;0.65;;
69847;SDS011;57143;55.940;37.496;2024-01-11T13:19:21;4.03;;;0.67;;
69847;SDS011;57143;55.940;37.496;2024-01-11T13:21:49;1.85;;;0.35;;
69847;SDS011;57143;55.940;37.496;2024-01-11T13:24:17;2.97;;;0.68;;
69847;SDS011;57143;55.940;37.496;2024-01-11T13:26:46;4.03;;;0.70;;
69847;SDS011;57143;55.940;37.496;2024-01-11T13:29:13;3.63;;;0.70;;
69847;SDS011;57143;55.940;37.496;2024-01-11T13:31:40;1.97;;;0.40;;
69847;SDS011;57143;55.940;37.496;2024-01-11T13:34:08;5.57;;;1.17;;
69847;SDS011;57143;55.940;37.496;2024-01-11T13:36:35;2.17;;;0.63;;
69847;SDS011;57143;55.940;37.496;2024-01-11T13:39:02;3.05;;;0.50;;
69847;SDS011;57143;55.940;37.496;2024-01-11T13:41:30;1.35;;;0.30;;
69847;SDS011;57143;55.940;37.496;2024-01-11T13:43:58;3.17;;;0.60;;
69847;SDS011;57143;55.940;37.496;2024-01-11T13:46:26;2.97;;;0.55;;
69847;SDS011;57143;55.940;37.496;2024-01-11T13:48:53;2.35;;;0.60;;
69847;SDS011;57143;55.940;37.496;2024-01-11T13:51:20;1.45;;;0.38;;
69847;SDS011;57143;55.940;37.496;2024-01-11T13:53:48;1.80;;;0.30;;
69847;SDS011;57143;55.940;37.496;2024-01-11T13:56:17;2.03;;;0.30;;
69847;SDS011;57143;55.940;37.496;2024-01-11T13:58:44;3.60;;;0.30;;
69847;SDS011;57143;55.940;37.496;2024-01-11T14:01:13;2.42;;;0.40;;
69847;SDS011;57143;55.940;37.496;2024-01-11T14:03:40;3.35;;;0.63;;
69847;SDS011;57143;55.940;37.496;2024-01-11T14:06:08;1.98;;;0.35;;
69847;SDS011;57143;55.940;37.496;2024-01-11T14:08:35;2.50;;;0.53;;
69847;SDS011;57143;55.940;37.496;2024-01-11T14:11:03;2.47;;;0.52;;
69847;SDS011;57143;55.940;37.496;2024-01-11T14:13:31;4.05;;;0.60;;
69847;SDS011;57143;55.940;37.496;2024-01-11T14:15:58;2.42;;;0.60;;
69847;SDS011;57143;55.940;37.496;2024-01-11T14:18:27;3.58;;;0.50;;
69847;SDS011;57143;55.940;37.496;2024-01-11T14:20:54;4.53;;;0.63;;
69847;SDS011;57143;55.940;37.496;2024-01-11T14:23:21;2.28;;;0.77;;
69847;SDS011;57143;55.940;37.496;2024-01-11T14:25:49;2.13;;;0.47;;
69847;SDS011;57143;55.940;37.496;2024-01-11T14:28:16;2.45;;;0.60;;
69847;SDS011;57143;55.940;37.496;2024-01-11T14:30:43;2.08;;;0.43;;
69847;SDS011;57143;55.940;37.496;2024-01-11T14:33:11;5.00;;;0.63;;
69847;SDS011;57143;55.940;37.496;2024-01-11T14:35:40;2.35;;;0.47;;
69847;SDS011;57143;55.940;37.496;2024-01-11T14:38:06;4.13;;;0.80;;
69847;SDS011;57143;55.940;37.496;2024-01-11T14:40:33;1.95;;;0.35;;